Flight Track Log - Related Links

Times and Time Zones

All times are in EST time to prevent confusion due to time zone crossing. See the EJA583 flight status page for this flight to view local times or setup timezone preferences in your user account.

Time Position Orientation Groundspeed Altitude Reporting Facility
EST Latitude Longitude Course Direction KTS MPH feet Rate Location/Type
Tue 12:41:40 PM 27.9500 -82.7000 348° North 211 243 1,600  Level Tampa TRACON
Tue 12:42:40 PM 28.0167 -82.7167 348° North 249 287 3,800 1,316 Climbing Tampa TRACON
Tue 12:43:34 PM 28.0833 -82.7167 360° North 264 304 4,100 1,370 Climbing Tampa TRACON
Tue 12:45:22 PM 28.2125 -82.7158 360° North 261 300 7,500 2,179 Climbing Jacksonville Center
Tue 12:46:22 PM 28.2939 -82.7181 359° North 267 307 10,200 2,750 Climbing Jacksonville Center
Tue 12:47:22 PM 28.3753 -82.7275 354° North 278 320 13,000 2,500 Climbing Jacksonville Center
Tue 12:48:22 PM 28.4525 -82.7581 341° North 283 326 15,200 2,150 Climbing Jacksonville Center
Tue 12:49:22 PM 28.5381 -82.7886 343° North 298 343 17,300 1,950 Climbing Jacksonville Center
Tue 12:50:22 PM 28.6217 -82.8311 336° Northwest 313 360 19,100 1,700 Climbing Jacksonville Center
Tue 12:51:22 PM 28.6819 -82.8808 324° Northwest 318 366 20,700 1,800 Climbing Jacksonville Center
Tue 12:52:22 PM 28.7675 -82.9422 328° Northwest 328 377 22,700 1,950 Climbing Jacksonville Center
Tue 12:53:22 PM 28.8447 -83.0064 324° Northwest 338 389 24,600 1,750 Climbing Jacksonville Center
Tue 12:54:22 PM 28.9261 -83.0706 325° Northwest 343 395 26,200 1,550 Climbing Jacksonville Center
Tue 12:55:22 PM 29.0094 -83.1372 325° Northwest 349 402 27,700 1,450 Climbing Jacksonville Center
Tue 12:56:22 PM 29.0908 -83.2014 325° Northwest 354 407 29,100 1,300 Climbing Jacksonville Center
Tue 12:57:22 PM 29.1719 -83.2658 325° Northwest 354 407 30,300 1,250 Climbing Jacksonville Center
Tue 12:58:22 PM 29.2553 -83.3328 325° Northwest 359 413 31,600 1,300 Climbing Jacksonville Center
Tue 12:59:22 PM 29.3386 -83.3975 326° Northwest 359 413 32,900 1,200 Climbing Jacksonville Center
Tue 01:00:22 PM 29.4197 -83.4625 325° Northwest 359 413 34,000 550 Climbing Jacksonville Center
Tue 01:01:22 PM 29.5008 -83.5272 325° Northwest 359 413 34,000  Level Jacksonville Center
Tue 01:02:22 PM 29.5797 -83.5900 325° Northwest 354 407 34,000  Level Jacksonville Center
Tue 01:03:22 PM 29.6567 -83.6503 326° Northwest 348 400 34,000  Level Jacksonville Center
Tue 01:04:22 PM 29.7356 -83.7131 325° Northwest 348 400 34,000  Level Jacksonville Center
Tue 01:05:22 PM 29.8186 -83.7783 326° Northwest 348 400 34,000  Level Jacksonville Center
Tue 01:06:22 PM 29.8975 -83.8436 324° Northwest 353 406 34,000  Level Jacksonville Center
Tue 01:07:22 PM 29.9786 -83.9069 326° Northwest 353 406 34,000  Level Jacksonville Center
Tue 01:08:22 PM 30.0239 -83.9936 301° West 322 371 34,000  Level Jacksonville Center
Tue 01:09:22 PM 30.0583 -84.0878 293° West 317 365 34,000  Level Jacksonville Center
Tue 01:10:22 PM 30.1033 -84.1844 298° West 312 359 34,000  Level Jacksonville Center
Tue 01:11:22 PM 30.1297 -84.2711 289° West 312 359 34,000  Level Jacksonville Center
Tue 01:12:22 PM 30.1661 -84.3606 295° West 312 359 34,000  Level Jacksonville Center
Tue 01:13:22 PM 30.2006 -84.4525 293° West 312 359 34,000  Level Jacksonville Center
Tue 01:14:22 PM 30.2369 -84.5442 295° West 312 359 34,000  Level Jacksonville Center
Tue 01:15:22 PM 30.2733 -84.6364 295° West 312 359 34,000  Level Jacksonville Center
Tue 01:16:22 PM 30.3136 -84.7381 295° West 312 359 34,000  Level Jacksonville Center
Tue 01:17:22 PM 30.3458 -84.8328 292° West 312 359 34,000 -50 Level Jacksonville Center
Tue 01:18:22 PM 30.3819 -84.9250 294° West 312 359 33,900 -550 Descending Jacksonville Center
Tue 01:19:22 PM 30.4200 -85.0219 294° West 317 365 32,900 -950 Descending Jacksonville Center
Tue 01:20:22 PM 30.4578 -85.1217 294° West 322 371 32,000 -950 Descending Jacksonville Center
Tue 01:21:22 PM 30.4958 -85.2214 294° West 329 379 31,000 -1,000 Descending Jacksonville Center
Tue 01:22:22 PM 30.5336 -85.3189 294° West 334 384 30,000 -1,000 Descending Jacksonville Center
Tue 01:23:22 PM 30.5861 -85.4117 303° West 339 390 29,000 -500 Descending Jacksonville Center
Tue 01:24:22 PM 30.6553 -85.4981 313° West 351 404 29,000  Level Jacksonville Center
Tue 01:25:22 PM 30.7203 -85.5819 312° West 357 411 29,000 -50 Level Jacksonville Center
Tue 01:26:22 PM 30.7875 -85.6661 313° West 357 411 28,900 -600 Descending Jacksonville Center
Tue 01:27:22 PM 30.8544 -85.7553 311° West 357 411 27,800 -1,300 Descending Jacksonville Center
Tue 01:28:22 PM 30.9233 -85.8444 312° West 364 419 26,300 -1,450 Descending Jacksonville Center
Tue 01:29:22 PM 30.9436 -85.9567 282° West 379 436 24,900 -1,350 Descending Jacksonville Center
Tue 01:30:22 PM 30.9514 -86.0731 274° West 379 436 23,600 -1,250 Descending Jacksonville Center
Tue 01:31:22 PM 30.9589 -86.1847 275° West 361 415 22,400 -1,200 Descending Jacksonville Center
Tue 01:32:22 PM 30.9686 -86.2917 276° West 348 400 21,200 -1,200 Descending Jacksonville Center
Tue 01:33:22 PM 30.9739 -86.4033 273° West 348 400 20,000 -1,200 Descending Jacksonville Center
Tue 01:34:22 PM 30.9792 -86.5150 273° West 348 400 18,800 -1,100 Descending Jacksonville Center
Tue 01:35:22 PM 30.9842 -86.6242 273° West 348 400 17,800 -1,000 Descending Jacksonville Center
Tue 01:36:22 PM 30.9981 -86.7217 279° West 348 400 16,800 -1,109 Descending Jacksonville Center
Tue 01:37:21 PM 31.0011 -86.8283 272° West 348 400 15,600 -1,261 Descending Jacksonville Center
Tue 01:38:21 PM 31.0186 -86.9333 281° West 343 395 14,300 -1,240 Descending Jacksonville Center
Tue 01:39:22 PM 31.0678 -87.0300 301° West 336 387 13,100 -1,194 Descending Jacksonville Center
Tue 01:41:27 PM 31.1528 -87.2247 297° West 319 367 10,600 -1,187 Descending Houston Center
Tue 01:42:29 PM 31.1750 -87.3047 288° West 271 312 9,400 -1,220 Descending Houston Center
Tue 01:43:30 PM 31.1961 -87.3853 287° West 261 300 8,100 -1,220 Descending Houston Center
Tue 01:44:32 PM 31.2200 -87.4672 289° West 264 304 6,900 -1,161 Descending Houston Center
Tue 01:45:34 PM 31.2514 -87.5397 297° West 259 298 5,700 -1,258 Descending Houston Center
Tue 01:46:36 PM 31.2983 -87.6147 306° West 246 283 4,300 -1,210 Descending Houston Center
Tue 01:47:38 PM 31.3386 -87.6792 306° West 244 281 3,200 -1,016 Descending Houston Center
Tue 01:48:40 PM 31.3786 -87.7439 306° West 245 282 2,200 -968 Descending Houston Center

Login

Don't have an account? Register now (free) for customized features, flight alerts, and more!